M I D A S
Marine Information and Data Acquisition System
Tripno 764 of the Zeeleeuw from 2004-08-20 06:23:16 to 2004-08-20 11:06:25
Back to CruiseResearch ActivitiesStationsMapUnderway DataData graphs

EquipmentUnitsComment
TimeDGPSUTC
LatitudeDGPSDM.mWGS84
LongitudeDGPSDM.mWGS84
TemperatureSBE03/SBE38deg celciusITS90
ConductivitySBE21S/mITS90
SalinitySBE21 Practical Salinity Units
ChlorophylAChelsea fluorimeterg/lCalibrated in Aceton
Missing or incorrect values are displayed as -999
Sea surface data collected by the RV Zeeleeuw from 2004-08-20 06:23:16 to 2004-08-20 11:06:25
Time Latitude Longitude Temperature Conductivity Salinity ChlorophylA
2004-08-20 06:24:24 51°13.542 2°56.176 22.333037 0.086663 0.445295 -0.781249
2004-08-20 06:25:27 51°13.548 2°56.235 22.261815 0.086663 0.445479 -0.781249
2004-08-20 06:26:27 51°13.544 2°56.219 22.326419 0.086559 0.444879 -0.74754
2004-08-20 06:27:28 51°13.538 2°56.219 22.325636 0.086559 0.444906 -0.71383
2004-08-20 06:28:28 51°13.534 2°56.226 22.286621 0.086559 0.444978 -0.74754
2004-08-20 06:29:27 51°13.547 2°56.183 22.294261 0.086559 0.444998 -0.74754
2004-08-20 06:30:38 51°13.612 2°56 22.278824 0.086559 0.445037 -0.74754
2004-08-20 06:31:48 51°13.701 2°55.791 22.27514 0.086559 0.445096 -0.71383
2004-08-20 06:32:59 51°13.83 2°55.627 20.389479 4.136339 28.999641 0.904221
2004-08-20 06:34:13 51°13.996 2°55.512 20.187579 4.341451 31.021364 0.97164
2004-08-20 06:35:11 51°14.14 2°55.404 20.22619 4.371193 31.314197 1.072768
2004-08-20 06:36:27 51°14.319 2°55.152 20.133197 4.196029 29.937732 0.803093
2004-08-20 06:37:33 51°14.436 2°54.835 20.09704 4.287985 30.720301 0.735674
2004-08-20 06:38:31 51°14.436 2°54.528 19.994933 4.430576 31.899364 0.769383
2004-08-20 06:39:33 51°14.43 2°54.372 19.975708 4.551562 32.932193 0.735674
2004-08-20 06:40:43 51°14.435 2°54.272 19.956964 4.594391 33.289836 0.769383
2004-08-20 06:41:56 51°14.437 2°54.217 19.92501 4.596607 33.332881 0.836802
2004-08-20 06:42:54 51°14.44 2°54.193 19.908805 4.625723 33.585724 0.803093
2004-08-20 06:44:11 51°14.443 2°54.132 19.900823 4.639649 33.710292 0.735674
2004-08-20 06:45:09 51°14.38 2°53.909 19.848773 4.60895 33.478498 0.836802
2004-08-20 06:46:12 51°14.268 2°53.589 19.803219 4.619817 33.615363 0.735674
2004-08-20 06:47:12 51°14.155 2°53.282 19.79632 4.668029 34.025218 0.567127
2004-08-20 06:48:13 51°14.04 2°52.971 19.793601 4.680056 34.126353 0.533418
2004-08-20 06:49:12 51°13.931 2°52.669 19.784429 4.671194 34.058514 0.432289
2004-08-20 06:50:15 51°13.813 2°52.345 19.781466 4.677419 34.12028 0.432289
2004-08-20 06:51:16 51°13.7 2°52.03 19.772373 4.687441 34.195341 0.39858
2004-08-20 06:52:25 51°13.57 2°51.67 19.758975 4.682905 34.181808 0.39858
2004-08-20 06:53:30 51°13.45 2°51.331 19.765106 4.684065 34.183252 0.432289
2004-08-20 06:54:30 51°13.339 2°51.016 19.758812 4.680795 34.1565 0.465999
2004-08-20 06:55:35 51°13.221 2°50.677 19.75463 4.681533 34.170012 0.499708
2004-08-20 06:56:36 51°13.108 2°50.357 19.763441 4.683221 34.180372 0.499708
2004-08-20 06:57:39 51°12.993 2°50.022 19.756011 4.685753 34.203965 0.465999
2004-08-20 06:58:39 51°12.884 2°49.705 19.744884 4.688602 34.232457 0.39858
2004-08-20 06:59:36 51°12.78 2°49.404 19.707592 4.687758 34.245721 0.331161
2004-08-20 07:00:38 51°12.667 2°49.077 19.696295 4.690185 34.285225 0.196324
2004-08-20 07:01:39 51°12.558 2°48.753 19.669183 4.690291 34.295337 0.263742
2004-08-20 07:02:42 51°12.444 2°48.42 19.663572 4.688498 34.299718 0.196324
2004-08-20 07:03:44 51°12.332 2°48.093 19.6628 4.686177 34.285311 0.128905
2004-08-20 07:04:44 51°12.226 2°47.772 19.662149 4.687126 34.294256 0.196324
2004-08-20 07:05:45 51°12.118 2°47.447 19.667353 4.687759 34.294819 0.230033
2004-08-20 07:06:50 51°12.003 2°47.099 19.673208 4.688076 34.293365 0.196324
2004-08-20 07:07:50 51°11.897 2°46.776 19.680362 4.688603 34.292485 0.230033
2004-08-20 07:08:56 51°11.782 2°46.418 19.685972 4.684383 34.254998 0.297452
2004-08-20 07:09:56 51°11.678 2°46.092 19.693613 4.689974 34.295056 0.364871
2004-08-20 07:10:57 51°11.569 2°45.761 19.684671 4.688603 34.282657 0.364871
2004-08-20 07:12:00 51°11.459 2°45.42 19.681419 4.690185 34.29852 0.432289
2004-08-20 07:13:00 51°11.356 2°45.093 19.681785 4.689236 34.293627 0.533418
2004-08-20 07:14:00 51°11.253 2°44.766 19.675362 4.687865 34.287586 0.735674
2004-08-20 07:15:00 51°11.149 2°44.441 19.669183 4.687654 34.288748 0.668255
2004-08-20 07:16:02 51°11.044 2°44.104 19.658205 4.687759 34.295397 0.634546
2004-08-20 07:17:06 51°10.934 2°43.754 19.644948 4.683751 34.273506 0.904221
2004-08-20 07:18:07 51°10.834 2°43.418 19.638725 4.681852 34.264868 0.93793
2004-08-20 07:19:05 51°10.824 2°43.064 19.629573 4.679742 34.254497 0.904221
2004-08-20 07:20:05 51°10.842 2°42.693 19.629939 4.679425 34.25537 0.97164
2004-08-20 07:21:04 51°10.87 2°42.329 19.634739 4.680269 34.261139 0.701965
2004-08-20 07:22:07 51°10.904 2°41.943 19.639417 4.681535 34.269213 0.803093
2004-08-20 07:23:07 51°10.891 2°41.586 19.642142 4.68259 34.273241 0.97164
2004-08-20 07:24:04 51°10.773 2°41.299 19.638359 4.683118 34.277569 1.072768
2004-08-20 07:25:15 51°10.597 2°40.972 19.610736 4.681852 34.27181 1.173896
2004-08-20 07:26:16 51°10.448 2°40.687 19.574839 4.678476 34.275363 1.207606
2004-08-20 07:27:20 51°10.293 2°40.387 19.5715 4.67605 34.276875 1.645828
2004-08-20 07:28:26 51°10.134 2°40.072 19.556232 4.675945 34.274268 1.645828
2004-08-20 07:29:31 51°9.978 2°39.763 19.51611 4.67162 34.263653 1.578409
2004-08-20 07:30:31 51°9.834 2°39.476 19.495164 4.669405 34.272131 1.578409
2004-08-20 07:31:36 51°9.705 2°39.141 19.494675 4.668877 34.278828 1.612118
2004-08-20 07:32:36 51°9.803 2°38.828 19.505597 4.669827 34.28025 1.612118
2004-08-20 07:33:36 51°9.947 2°38.532 19.504456 4.670249 34.284884 1.612118
2004-08-20 07:34:36 51°10.094 2°38.24 19.568488 4.672358 34.277269 1.814375
2004-08-20 07:35:36 51°10.191 2°37.913 19.586115 4.677211 34.280032 2.218888
2004-08-20 07:36:35 51°10.144 2°37.57 19.599586 4.677738 34.273933 2.454853
2004-08-20 07:37:40 51°9.994 2°37.249 19.606382 4.680903 34.290654 2.353725
2004-08-20 07:38:45 51°9.843 2°36.929 19.605731 4.682063 34.295548 2.320016
2004-08-20 07:39:44 51°9.705 2°36.635 19.599505 4.680692 34.287763 2.218888
2004-08-20 07:40:44 51°9.566 2°36.334 19.599871 4.679215 34.277951 2.353725
2004-08-20 07:41:52 51°9.464 2°35.952 19.607684 4.679109 34.274189 2.421144
2004-08-20 07:42:53 51°9.55 2°35.611 19.616921 4.678898 34.262035 2.185178
2004-08-20 07:43:54 51°9.743 2°35.403 19.57948 4.679004 34.26869 2.151469
2004-08-20 07:45:00 51°9.978 2°35.289 19.483873 4.677422 34.312524 2.387435
2004-08-20 07:46:02 51°10.202 2°35.313 19.408135 4.668773 34.318105 2.353725
2004-08-20 07:47:02 51°10.383 2°35.499 19.390586 4.665397 34.322922 2.252597
2004-08-20 07:48:02 51°10.551 2°35.711 19.384299 4.664765 34.329371 2.185178
2004-08-20 07:49:04 51°10.729 2°35.93 19.411073 4.665608 34.322912 2.353725
2004-08-20 07:50:19 51°10.917 2°36.241 19.435267 4.66909 34.335285 2.589691
2004-08-20 07:51:16 51°11.062 2°36.473 19.420703 4.671094 34.345392 2.555982
2004-08-20 07:52:20 51°11.234 2°36.722 19.406625 4.670672 34.354165 2.421144
2004-08-20 07:53:20 51°11.392 2°36.957 19.37838 4.668879 34.356889 2.320016
2004-08-20 07:54:28 51°11.564 2°37.229 19.361844 4.667402 34.360477 2.252597
2004-08-20 07:55:34 51°11.733 2°37.492 19.336604 4.665293 34.362352 2.185178
2004-08-20 07:56:36 51°11.89 2°37.737 19.312213 4.662972 34.363076 2.151469
2004-08-20 07:57:46 51°12.074 2°38.01 19.309025 4.659913 34.350676 2.218888
2004-08-20 07:58:47 51°12.232 2°38.253 19.305633 4.659491 34.348944 2.387435
2004-08-20 07:59:47 51°12.392 2°38.483 19.30547 4.659702 34.3542 2.454853
2004-08-20 08:00:47 51°12.556 2°38.704 19.305715 4.658541 34.34461 2.65711
2004-08-20 08:01:45 51°12.721 2°38.905 19.296111 4.657381 34.337947 2.488563
2004-08-20 08:02:44 51°12.906 2°39.072 19.28908 4.658542 34.351635 2.286306
2004-08-20 08:03:47 51°13.132 2°39.135 19.282867 4.660335 34.375835 1.949212
2004-08-20 08:04:47 51°13.351 2°39.176 19.298195 4.660968 34.380483 1.881794
2004-08-20 08:05:44 51°13.561 2°39.177 19.312417 4.663394 34.384131 1.645828
2004-08-20 08:06:53 51°13.818 2°39.158 19.319772 4.666454 34.40297 1.5447
2004-08-20 08:07:54 51°14.04 2°39.074 19.330558 4.665504 34.385749 1.51099
2004-08-20 08:08:54 51°14.196 2°38.827 19.340444 4.665926 34.383965 1.51099
2004-08-20 08:09:54 51°14.236 2°38.47 19.346203 4.667825 34.392624 1.578409
2004-08-20 08:10:53 51°14.181 2°38.123 19.342772 4.665082 34.368214 1.612118
2004-08-20 08:11:58 51°14.102 2°37.744 19.342527 4.665926 34.376355 1.679537
2004-08-20 08:12:59 51°14.033 2°37.383 19.331457 4.663816 34.36127 1.881794
2004-08-20 08:14:00 51°13.953 2°37.027 19.306165 4.664133 34.376761 1.780665
2004-08-20 08:15:00 51°13.864 2°36.681 19.273709 4.655166 34.323734 1.949212
2004-08-20 08:16:05 51°13.769 2°36.305 19.236779 4.653267 34.339066 1.915503
2004-08-20 08:17:05 51°13.661 2°35.974 19.213622 4.64852 34.326162 1.848084
2004-08-20 08:18:05 51°13.552 2°35.644 19.199421 4.649576 34.3478 2.151469
2004-08-20 08:19:05 51°13.422 2°35.337 19.189679 4.651791 34.377894 2.151469
2004-08-20 08:20:05 51°13.28 2°35.043 19.186895 4.649154 34.361335 2.185178
2004-08-20 08:21:04 51°13.139 2°34.755 19.18886 4.6462 34.335691 2.387435
2004-08-20 08:22:08 51°12.987 2°34.441 19.200485 4.64736 34.341781 2.286306
2004-08-20 08:23:09 51°12.842 2°34.145 19.21354 4.644934 34.311714 2.353725
2004-08-20 08:24:09 51°12.702 2°33.851 19.207852 4.644512 34.302945 2.353725
2004-08-20 08:25:09 51°12.576 2°33.542 19.211126 4.648837 34.341686 2.387435
2004-08-20 08:26:09 51°12.448 2°33.231 19.208834 4.648837 34.341686 2.421144
2004-08-20 08:27:09 51°12.333 2°32.907 19.205928 4.651897 34.369368 2.555982
2004-08-20 08:28:09 51°12.224 2°32.576 19.208097 4.651264 34.364713 2.6234
2004-08-20 08:29:09 51°12.113 2°32.244 19.220414 4.652319 34.368164 2.488563
2004-08-20 08:30:09 51°12 2°31.91 19.231584 4.653795 34.369823 2.555982
2004-08-20 08:31:14 51°11.892 2°31.541 19.234366 4.65485 34.372099 2.522272
2004-08-20 08:32:13 51°11.801 2°31.204 19.233343 4.655061 34.377368 2.387435
2004-08-20 08:33:14 51°11.706 2°30.855 19.239847 4.655694 34.374976 2.421144
2004-08-20 08:34:13 51°11.617 2°30.515 19.247414 4.655166 34.367089 2.387435
2004-08-20 08:35:12 51°11.532 2°30.173 19.254081 4.655799 34.364701 2.387435
2004-08-20 08:36:20 51°11.435 2°29.773 19.264223 4.657382 34.372514 2.454853
2004-08-20 08:37:20 51°11.355 2°29.415 19.281436 4.658647 34.370671 2.65711
2004-08-20 08:38:24 51°11.272 2°29.029 19.2807 4.659702 34.374119 2.791947
2004-08-20 08:39:23 51°11.202 2°28.668 19.278574 4.66023 34.376135 3.095332
2004-08-20 08:40:28 51°11.125 2°28.268 19.27653 4.660335 34.381112 2.589691
2004-08-20 08:41:28 51°11.058 2°27.897 19.26594 4.660019 34.381426 2.724529
2004-08-20 08:42:33 51°10.987 2°27.492 19.254899 4.659386 34.384989 2.522272
2004-08-20 08:43:33 51°10.927 2°27.116 19.244428 4.658542 34.387395 2.522272
2004-08-20 08:44:33 51°10.873 2°26.736 19.232361 4.657698 34.389217 2.488563
2004-08-20 08:45:34 51°10.842 2°26.344 19.22291 4.656749 34.390166 2.421144
2004-08-20 08:46:33 51°10.829 2°25.963 19.207197 4.655694 34.39083 2.421144
2004-08-20 08:47:32 51°10.815 2°25.581 19.204414 4.65464 34.392084 2.454853
2004-08-20 08:48:33 51°10.877 2°25.208 19.212762 4.653901 34.384205 2.421144
2004-08-20 08:49:33 51°11.041 2°24.941 19.217591 4.65369 34.377758 2.488563
2004-08-20 08:50:36 51°11.234 2°24.713 19.214727 4.654112 34.382427 2.286306
2004-08-20 08:51:36 51°11.431 2°24.548 19.214686 4.65485 34.387955 2.218888
2004-08-20 08:52:36 51°11.64 2°24.475 19.225161 4.655694 34.394356 2.421144
2004-08-20 08:53:36 51°11.841 2°24.531 19.238784 4.655694 34.375562 2.185178
2004-08-20 08:54:36 51°12.033 2°24.646 19.235756 4.656327 34.376693 2.016631
2004-08-20 08:55:36 51°12.206 2°24.824 19.216404 4.655589 34.379385 2.218888
2004-08-20 08:56:36 51°12.375 2°25.007 19.196637 4.65464 34.390321 2.151469
2004-08-20 08:57:40 51°12.552 2°25.215 19.191316 4.654323 34.396517 2.117759
2004-08-20 08:58:47 51°12.733 2°25.43 19.182065 4.654007 34.398599 1.982922
2004-08-20 08:59:46 51°12.893 2°25.625 19.162042 4.65348 34.405994 1.982922
2004-08-20 09:00:48 51°13.062 2°25.828 19.141932 4.652003 34.414945 2.185178
2004-08-20 09:01:50 51°13.236 2°26.021 19.125218 4.651898 34.424677 2.08405
2004-08-20 09:02:55 51°13.413 2°26.231 19.104072 4.650421 34.431882 1.915503
2004-08-20 09:04:00 51°13.581 2°26.447 19.083782 4.64905 34.435252 1.679537
2004-08-20 09:05:00 51°13.741 2°26.639 19.05516 4.647995 34.44539 1.780665
2004-08-20 09:06:00 51°13.903 2°26.829 19.030999 4.646624 34.455869 1.645828
2004-08-20 09:07:00 51°14.066 2°27.024 19.018033 4.645569 34.461892 1.982922
2004-08-20 09:08:05 51°14.241 2°27.237 19.020125 4.645042 34.461649 2.050341
2004-08-20 09:09:06 51°14.399 2°27.442 19.002643 4.645148 34.466671 2.08405
2004-08-20 09:10:12 51°14.58 2°27.658 18.980557 4.643988 34.475383 1.780665
2004-08-20 09:11:12 51°14.744 2°27.848 19.002643 4.64346 34.468031 1.679537
2004-08-20 09:12:12 51°14.905 2°28.037 18.982733 4.643565 34.468316 1.679537
2004-08-20 09:13:16 51°15.077 2°28.247 18.95218 4.642195 34.484176 1.713247
2004-08-20 09:14:25 51°15.263 2°28.465 18.956411 4.642089 34.493981 1.645828
2004-08-20 09:15:30 51°15.437 2°28.68 18.984622 4.643249 34.4894 1.713247
2004-08-20 09:16:31 51°15.598 2°28.886 18.990821 4.644621 34.486579 1.780665
2004-08-20 09:17:31 51°15.753 2°29.102 18.984334 4.644515 34.485701 1.780665
2004-08-20 09:18:40 51°15.93 2°29.346 18.989753 4.64441 34.486602 1.881794
2004-08-20 09:19:46 51°16.096 2°29.58 19.013806 4.644304 34.463797 1.746956
2004-08-20 09:20:45 51°16.245 2°29.787 19.009661 4.644726 34.468491 1.746956
2004-08-20 09:21:46 51°16.401 2°30.001 19.008512 4.64462 34.469983 1.915503
2004-08-20 09:22:49 51°16.561 2°30.225 19.01122 4.644304 34.464981 1.780665
2004-08-20 09:23:50 51°16.717 2°30.436 19.020208 4.644515 34.46496 1.780665
2004-08-20 09:24:50 51°16.864 2°30.645 19.018361 4.645359 34.467834 2.08405
2004-08-20 09:25:56 51°17.03 2°30.876 19.02427 4.645781 34.470751 1.814375
2004-08-20 09:27:05 51°17.213 2°31.113 19.032517 4.646097 34.46687 1.881794
2004-08-20 09:28:09 51°17.372 2°31.343 19.045972 4.645886 34.458013 1.915503
2004-08-20 09:29:13 51°17.531 2°31.561 19.061312 4.646941 34.452585 1.848084
2004-08-20 09:30:20 51°17.7 2°31.791 19.067545 4.647995 34.450709 2.387435
2004-08-20 09:31:20 51°17.857 2°32 19.058359 4.648417 34.454215 1.848084
2004-08-20 09:32:25 51°18.022 2°32.243 19.045603 4.647363 34.4555 1.780665
2004-08-20 09:33:25 51°18.171 2°32.472 19.036373 4.646624 34.457052 1.746956
2004-08-20 09:34:24 51°18.316 2°32.682 19.048844 4.646308 34.453238 1.949212
2004-08-20 09:35:24 51°18.462 2°32.904 19.051182 4.647679 34.458131 1.780665
2004-08-20 09:36:30 51°18.625 2°33.149 19.04146 4.647679 34.461088 2.050341
2004-08-20 09:37:30 51°18.772 2°33.372 19.026937 4.647679 34.468188 1.915503
2004-08-20 09:38:30 51°18.924 2°33.578 19.015447 4.646203 34.470707 2.252597
2004-08-20 09:39:29 51°19.068 2°33.788 19.012287 4.645675 34.472243 2.218888
2004-08-20 09:40:34 51°19.231 2°34.026 19.008266 4.645042 34.469939 1.713247
2004-08-20 09:41:33 51°19.382 2°34.233 19.017786 4.644937 34.470247 1.713247
2004-08-20 09:42:32 51°19.527 2°34.437 19.047572 4.646835 34.468274 1.814375
2004-08-20 09:43:33 51°19.677 2°34.647 19.0837 4.649894 34.466486 1.949212
2004-08-20 09:44:33 51°19.825 2°34.857 19.111408 4.652848 34.463241 1.848084
2004-08-20 09:45:37 51°19.984 2°35.082 19.115629 4.655063 34.466276 1.612118
2004-08-20 09:46:37 51°20.134 2°35.295 19.116982 4.654746 34.463649 1.645828
2004-08-20 09:47:37 51°20.285 2°35.502 19.113007 4.654852 34.465706 1.679537
2004-08-20 09:48:36 51°20.43 2°35.718 19.116695 4.65443 34.461613 1.746956
2004-08-20 09:49:36 51°20.551 2°35.963 19.129765 4.655485 34.463284 1.949212
2004-08-20 09:50:37 51°20.602 2°36.266 19.143612 4.656012 34.457038 1.679537
2004-08-20 09:51:36 51°20.579 2°36.576 19.147053 4.656539 34.454925 1.679537
2004-08-20 09:52:36 51°20.567 2°36.899 19.142916 4.656434 34.45346 1.982922
2004-08-20 09:53:37 51°20.563 2°37.231 19.139475 4.655801 34.452928 1.679537
2004-08-20 09:54:40 51°20.565 2°37.571 19.133575 4.656223 34.455838 2.016631
2004-08-20 09:55:39 51°20.567 2°37.896 19.11985 4.655063 34.456831 1.645828
2004-08-20 09:56:39 51°20.56 2°38.226 19.110958 4.654008 34.455159 1.746956
2004-08-20 09:57:40 51°20.555 2°38.553 19.120137 4.65348 34.456094 1.746956
2004-08-20 09:58:40 51°20.547 2°38.874 19.148118 4.654746 34.446536 1.982922
2004-08-20 09:59:44 51°20.54 2°39.222 19.174941 4.65559 34.437618 1.612118
2004-08-20 10:00:43 51°20.526 2°39.543 19.19369 4.65791 34.431529 1.713247
2004-08-20 10:01:56 51°20.516 2°39.945 19.152664 4.657488 34.434509 1.949212
2004-08-20 10:02:56 51°20.519 2°40.278 19.153114 4.654746 34.435334 1.746956
2004-08-20 10:04:00 51°20.507 2°40.629 19.154466 4.655379 34.433511 1.679537
2004-08-20 10:05:00 51°20.493 2°40.956 19.179117 4.655379 34.428209 1.780665
2004-08-20 10:06:14 51°20.481 2°41.36 19.230356 4.659598 34.423153 1.713247
2004-08-20 10:07:14 51°20.469 2°41.691 19.251791 4.662024 34.421491 1.746956
2004-08-20 10:08:14 51°20.463 2°42.02 19.267208 4.663922 34.420756 2.117759
2004-08-20 10:09:12 51°20.456 2°42.331 19.267289 4.664555 34.419534 1.746956
2004-08-20 10:10:16 51°20.431 2°42.68 19.254735 4.664872 34.426262 1.746956
2004-08-20 10:11:25 51°20.403 2°43.058 19.25269 4.664239 34.429249 1.780665
2004-08-20 10:12:24 51°20.377 2°43.381 19.26778 4.664766 34.42539 1.780665
2004-08-20 10:13:24 51°20.359 2°43.706 19.320875 4.666665 34.421136 1.982922
2004-08-20 10:14:28 51°20.327 2°44.056 19.361232 4.671306 34.41435 1.443571
2004-08-20 10:15:31 51°20.293 2°44.4 19.39279 4.674049 34.41065 1.5447
2004-08-20 10:16:34 51°20.259 2°44.744 19.417806 4.676897 34.409585 1.443571
2004-08-20 10:17:36 51°20.242 2°45.083 19.434532 4.679112 34.409151 1.780665
2004-08-20 10:18:46 51°20.212 2°45.462 19.476821 4.681749 34.408695 1.578409
2004-08-20 10:19:47 51°20.195 2°45.787 19.515743 4.685335 34.405564 1.612118
2004-08-20 10:20:48 51°20.17 2°46.116 19.548291 4.688922 34.405361 1.376153
2004-08-20 10:21:47 51°20.15 2°46.435 19.576223 4.691348 34.400281 1.409862
2004-08-20 10:22:47 51°20.119 2°46.768 19.594499 4.693457 34.397846 1.241315
2004-08-20 10:23:49 51°20.089 2°47.107 19.615578 4.694512 34.391982 1.342443
2004-08-20 10:25:00 51°20.057 2°47.488 19.69341 4.69852 34.376712 1.275024
2004-08-20 10:26:01 51°20.031 2°47.817 19.734243 4.702318 34.370192 1.612118
2004-08-20 10:27:02 51°19.993 2°48.15 19.791247 4.706009 34.358789 1.443571
2004-08-20 10:28:00 51°19.845 2°48.369 19.838229 4.710334 34.354911 1.207606
2004-08-20 10:29:00 51°19.622 2°48.438 19.866655 4.714132 34.348475 1.679537
2004-08-20 10:30:08 51°19.358 2°48.469 19.837459 4.714975 34.343272 1.949212
2004-08-20 10:31:07 51°19.158 2°48.59 19.681948 4.70928 34.378046 1.713247
2004-08-20 10:32:07 51°19.014 2°48.85 19.584731 4.698415 34.392671 1.275024
2004-08-20 10:33:12 51°18.878 2°49.151 19.528169 4.691137 34.40262 1.409862
2004-08-20 10:34:12 51°18.75 2°49.428 19.508164 4.687761 34.398726 1.5447
2004-08-20 10:35:12 51°18.617 2°49.705 19.512157 4.686812 34.4014 1.308734
2004-08-20 10:36:25 51°18.457 2°50.046 19.525725 4.68755 34.401067 1.443571
2004-08-20 10:37:27 51°18.318 2°50.332 19.581515 4.689554 34.394846 1.241315
2004-08-20 10:38:29 51°18.182 2°50.621 19.639579 4.694301 34.38502 1.477281
2004-08-20 10:39:32 51°18.04 2°50.916 19.697352 4.699575 34.378409 1.612118
2004-08-20 10:40:33 51°17.901 2°51.201 19.739482 4.702845 34.36699 1.612118
2004-08-20 10:41:40 51°17.751 2°51.511 19.77972 4.70622 34.357627 1.645828
2004-08-20 10:42:40 51°17.604 2°51.777 19.805613 4.708435 34.349767 1.578409
2004-08-20 10:43:42 51°17.436 2°52.035 19.815919 4.70949 34.342241 1.814375
2004-08-20 10:44:42 51°17.23 2°52.204 19.791613 4.708541 34.336207 2.08405
2004-08-20 10:45:48 51°16.989 2°52.331 19.737736 4.70622 34.345497 1.881794
2004-08-20 10:46:58 51°16.736 2°52.469 19.709542 4.701579 34.35546 2.218888
2004-08-20 10:47:57 51°16.523 2°52.592 19.739563 4.701368 34.353153 2.421144
2004-08-20 10:48:59 51°16.299 2°52.709 19.79843 4.704849 34.34178 2.185178
2004-08-20 10:49:58 51°16.101 2°52.86 19.836769 4.708329 34.326411 2.286306
2004-08-20 10:51:00 51°15.895 2°53.026 19.835106 4.70854 34.314886 2.050341
2004-08-20 10:51:59 51°15.696 2°53.179 19.843055 4.703476 34.273511 1.881794
2004-08-20 10:53:00 51°15.494 2°53.339 19.855789 4.700627 34.239899 2.050341
2004-08-20 10:54:00 51°15.378 2°53.414 19.865195 4.702421 34.244206 1.746956
2004-08-20 10:54:59 51°15.317 2°53.434 19.870303 4.701682 34.231863 2.252597
2004-08-20 10:56:07 51°15.278 2°53.451 19.875289 4.701155 34.224115 1.713247
2004-08-20 10:57:12 51°15.251 2°53.46 19.883923 4.700838 34.215223 2.117759
2004-08-20 10:58:12 51°15.234 2°53.466 19.888949 4.700416 34.208913 1.982922
2004-08-20 10:59:18 51°15.187 2°53.512 19.890975 4.699888 34.20117 1.612118
2004-08-20 11:00:17 51°15.071 2°53.681 19.906293 4.699466 34.194863 1.915503
2004-08-20 11:01:18 51°14.926 2°53.914 19.93538 4.697883 34.160781 1.713247
2004-08-20 11:02:18 51°14.79 2°54.159 19.954534 4.69514 34.117863 2.08405
2004-08-20 11:03:16 51°14.666 2°54.405 19.972065 4.690814 34.069525 1.612118
2004-08-20 11:04:18 51°14.538 2°54.669 19.988012 4.680369 33.968045 2.08405
2004-08-20 11:05:18 51°14.417 2°54.924 20.014719 4.670136 33.868414 1.679537
2004-08-20 11:06:18 51°14.311 2°55.169 20.050433 4.599559 33.26563 2.185178